Cedar Hill, New Mexico
Current Conditions -  °F | °C
As of 8:53 PM on Thursday 20 Nov 2014 (Local Time) from KFMN Reporting Station
Scattered Clouds Scattered Clouds  
Wind Chill: 30°   Ceiling: Unl
Heat Index: 30°   Visibility: 10mi
Dew Point: 12°   Wind: 3mph
Humidity: 47%   Direction: 360°N
Pressure: 30.07"   Gusts: NA
Location:  36.928°N, 107.996°W
Report Text: KFMN 210353Z 36003KT 10SM SCT100 M01/M11 A3007 RMK AO2 SLP206 T10111111
Loading
Personal Weather Stations






























Interactive Weather Map New forecast layout! Learn more

10-Day Weather Forecast

Advertisements
Track Severe Weather on mobile